サンクトペテルブルク の空港の天気 - METARとTAF

プルコヴォ空港(サンクトペテルブルグ) ( ULLI / LED ) - ロシア サンクトペテルブルク
飛行場実況気象(Metar)
観測時間02/18 01:30 MSK (02/17 22:30 UTC)
風向・風速西北西 5m/s
視程10km以上
天気現象
なし
気温-3℃
湿度63%
気圧1018hPa
METARULLI 172230Z 29005MPS CAVOK M03/M09 Q1018 R28L/090060 NOSIG
過去の天気等 Google飛行場航空写真 Wunderground天気予報

過去48時間のMETAR

飛行場予報(TAF)
発表時間: 2/17 22:57 MSK (2/17 19:57 UTC)
予報対象時間: 18日0時 MSK ~ 19日0時 MSK
風向・風速北西 5m/s 瞬間風速 11m/s
視程10km以上
全天の4割程度の雲 雲底高度 910m
18日1時 MSK ~ 18日2時 MSK に徐々に
風向・風速北西 3m/s
18日4時 MSK ~ 18日11時 MSK に一時的に
視程3100m
天気現象地霧 もや
全天の8割程度の雲 雲底高度 340m
18日11時 MSK ~ 18日13時 MSK に徐々に
風向・風速南南西 3m/s 瞬間風速 8m/s
全天の8割程度の雲 雲底高度 460m
18日19時 MSK ~ 18日21時 MSK に徐々に
風向・風速南西 7m/s 瞬間風速 12m/s
TAF ULLI 171957Z 1721/1821 31005G11MPS 9999 SCT030
BECMG 1722/1723 31003MPS
TEMPO 1801/1808 3100 MIFG BR BKN011
BECMG 1808/1810 21003G08MPS BKN015
BECMG 1816/1818 22007G12MPS